sensor_id;sensor_type;location;lat;lon;timestamp;pressure;altitude;pressure_sealevel;temperature;humidity
42411;BME280;28056;51.112;0.984;2023-06-10T00:04:52;100325.53;;;16.76;66.37
42411;BME280;28056;51.112;0.984;2023-06-10T00:07:19;100325.17;;;17.02;64.08
42411;BME280;28056;51.112;0.984;2023-06-10T00:09:47;100326.60;;;17.28;63.01
42411;BME280;28056;51.112;0.984;2023-06-10T00:12:15;100326.20;;;17.65;61.48
42411;BME280;28056;51.112;0.984;2023-06-10T00:14:42;100321.28;;;17.42;62.06
42411;BME280;28056;51.112;0.984;2023-06-10T00:17:09;100319.00;;;17.53;61.21
42411;BME280;28056;51.112;0.984;2023-06-10T00:19:37;100317.05;;;17.02;63.78
42411;BME280;28056;51.112;0.984;2023-06-10T00:22:05;100317.66;;;17.21;63.49
42411;BME280;28056;51.112;0.984;2023-06-10T00:24:32;100315.45;;;17.07;64.18
42411;BME280;28056;51.112;0.984;2023-06-10T00:27:00;100313.88;;;17.37;63.12
42411;BME280;28056;51.112;0.984;2023-06-10T00:29:27;100311.84;;;17.04;64.57
42411;BME280;28056;51.112;0.984;2023-06-10T00:31:55;100307.63;;;17.14;63.67
42411;BME280;28056;51.112;0.984;2023-06-10T00:34:22;100309.90;;;16.94;63.83
42411;BME280;28056;51.112;0.984;2023-06-10T00:36:49;100308.40;;;16.87;64.11
42411;BME280;28056;51.112;0.984;2023-06-10T00:39:16;100304.26;;;17.38;63.42
42411;BME280;28056;51.112;0.984;2023-06-10T00:41:43;100303.30;;;17.55;63.19
42411;BME280;28056;51.112;0.984;2023-06-10T00:44:11;100303.55;;;16.83;63.88
42411;BME280;28056;51.112;0.984;2023-06-10T00:46:38;100297.82;;;17.25;62.64
42411;BME280;28056;51.112;0.984;2023-06-10T00:49:07;100300.33;;;16.83;63.13
42411;BME280;28056;51.112;0.984;2023-06-10T00:51:34;100300.17;;;17.00;64.27
42411;BME280;28056;51.112;0.984;2023-06-10T00:54:03;100300.96;;;17.69;61.49
42411;BME280;28056;51.112;0.984;2023-06-10T00:56:33;100296.45;;;16.91;63.05
42411;BME280;28056;51.112;0.984;2023-06-10T00:59:00;100301.79;;;17.43;61.58
42411;BME280;28056;51.112;0.984;2023-06-10T01:01:28;100301.36;;;16.78;63.52
42411;BME280;28056;51.112;0.984;2023-06-10T01:03:56;100300.19;;;17.29;62.35
42411;BME280;28056;51.112;0.984;2023-06-10T01:06:28;100303.18;;;17.37;62.01
42411;BME280;28056;51.112;0.984;2023-06-10T01:09:05;100301.44;;;17.55;62.64
42411;BME280;28056;51.112;0.984;2023-06-10T01:11:40;100303.59;;;17.04;62.86
42411;BME280;28056;51.112;0.984;2023-06-10T01:14:09;100301.38;;;17.24;62.22
42411;BME280;28056;51.112;0.984;2023-06-10T01:16:37;100303.88;;;16.52;63.85
42411;BME280;28056;51.112;0.984;2023-06-10T01:19:05;100303.64;;;16.64;63.66
42411;BME280;28056;51.112;0.984;2023-06-10T01:21:32;100305.25;;;16.57;64.56
42411;BME280;28056;51.112;0.984;2023-06-10T01:23:59;100305.12;;;16.88;64.58
42411;BME280;28056;51.112;0.984;2023-06-10T01:26:29;100298.83;;;16.33;64.54
42411;BME280;28056;51.112;0.984;2023-06-10T01:29:05;100304.51;;;17.24;62.00
42411;BME280;28056;51.112;0.984;2023-06-10T01:31:42;100304.06;;;16.82;63.11
42411;BME280;28056;51.112;0.984;2023-06-10T01:34:12;100303.72;;;17.96;60.47
42411;BME280;28056;51.112;0.984;2023-06-10T01:36:41;100301.32;;;17.80;60.29
42411;BME280;28056;51.112;0.984;2023-06-10T01:39:11;100298.27;;;17.67;60.52
42411;BME280;28056;51.112;0.984;2023-06-10T01:41:40;100294.48;;;17.68;60.23
42411;BME280;28056;51.112;0.984;2023-06-10T01:44:17;100293.71;;;17.62;60.65
42411;BME280;28056;51.112;0.984;2023-06-10T01:46:44;100292.57;;;17.33;61.04
42411;BME280;28056;51.112;0.984;2023-06-10T01:49:12;100292.48;;;17.64;60.54
42411;BME280;28056;51.112;0.984;2023-06-10T01:51:40;100292.03;;;17.79;60.60
42411;BME280;28056;51.112;0.984;2023-06-10T01:54:08;100291.08;;;17.92;60.24
42411;BME280;28056;51.112;0.984;2023-06-10T01:56:35;100291.38;;;17.35;59.78
42411;BME280;28056;51.112;0.984;2023-06-10T01:59:02;100288.91;;;17.58;60.21
42411;BME280;28056;51.112;0.984;2023-06-10T02:01:30;100290.71;;;17.79;60.49
42411;BME280;28056;51.112;0.984;2023-06-10T02:03:57;100286.63;;;17.52;60.67
42411;BME280;28056;51.112;0.984;2023-06-10T02:06:25;100285.56;;;17.40;60.80
42411;BME280;28056;51.112;0.984;2023-06-10T02:08:52;100289.18;;;17.57;61.60
42411;BME280;28056;51.112;0.984;2023-06-10T02:11:19;100287.16;;;17.20;62.01
42411;BME280;28056;51.112;0.984;2023-06-10T02:13:47;100285.84;;;17.03;62.02
42411;BME280;28056;51.112;0.984;2023-06-10T02:16:14;100285.81;;;17.35;61.32
42411;BME280;28056;51.112;0.984;2023-06-10T02:18:42;100284.19;;;17.44;61.14
42411;BME280;28056;51.112;0.984;2023-06-10T02:21:09;100284.71;;;17.35;62.12
42411;BME280;28056;51.112;0.984;2023-06-10T02:23:37;100282.81;;;16.54;63.23
42411;BME280;28056;51.112;0.984;2023-06-10T02:26:05;100283.75;;;16.90;64.17
42411;BME280;28056;51.112;0.984;2023-06-10T02:28:36;100282.30;;;16.88;63.91
42411;BME280;28056;51.112;0.984;2023-06-10T02:31:03;100284.95;;;16.68;64.52
42411;BME280;28056;51.112;0.984;2023-06-10T02:33:31;100285.47;;;17.04;63.75
42411;BME280;28056;51.112;0.984;2023-06-10T02:35:58;100286.36;;;16.94;63.01
42411;BME280;28056;51.112;0.984;2023-06-10T02:38:26;100286.29;;;17.00;62.74
42411;BME280;28056;51.112;0.984;2023-06-10T02:40:58;100283.85;;;17.13;63.36
42411;BME280;28056;51.112;0.984;2023-06-10T02:43:30;100287.20;;;17.90;61.22
42411;BME280;28056;51.112;0.984;2023-06-10T02:45:58;100287.70;;;17.14;63.36
42411;BME280;28056;51.112;0.984;2023-06-10T02:48:25;100283.93;;;17.08;62.57
42411;BME280;28056;51.112;0.984;2023-06-10T02:50:53;100286.41;;;16.80;63.15
42411;BME280;28056;51.112;0.984;2023-06-10T02:53:20;100289.33;;;17.13;61.98
42411;BME280;28056;51.112;0.984;2023-06-10T02:55:47;100286.44;;;17.10;62.16
42411;BME280;28056;51.112;0.984;2023-06-10T02:58:14;100289.41;;;17.19;61.64
42411;BME280;28056;51.112;0.984;2023-06-10T03:00:42;100288.52;;;17.10;63.29
42411;BME280;28056;51.112;0.984;2023-06-10T03:03:09;100289.44;;;17.53;61.14
42411;BME280;28056;51.112;0.984;2023-06-10T03:05:36;100290.67;;;17.41;61.10
42411;BME280;28056;51.112;0.984;2023-06-10T03:08:04;100289.68;;;17.95;60.30
42411;BME280;28056;51.112;0.984;2023-06-10T03:10:31;100294.76;;;17.83;59.77
42411;BME280;28056;51.112;0.984;2023-06-10T03:12:59;100298.38;;;17.90;59.52
42411;BME280;28056;51.112;0.984;2023-06-10T03:15:26;100296.56;;;17.06;62.08
42411;BME280;28056;51.112;0.984;2023-06-10T03:17:53;100295.05;;;17.49;61.27
42411;BME280;28056;51.112;0.984;2023-06-10T03:20:21;100294.20;;;16.75;62.68
42411;BME280;28056;51.112;0.984;2023-06-10T03:22:48;100291.31;;;17.75;60.25
42411;BME280;28056;51.112;0.984;2023-06-10T03:25:15;100289.80;;;17.77;60.78
42411;BME280;28056;51.112;0.984;2023-06-10T03:27:43;100289.81;;;16.60;63.38
42411;BME280;28056;51.112;0.984;2023-06-10T03:30:11;100292.17;;;17.40;62.83
42411;BME280;28056;51.112;0.984;2023-06-10T03:32:39;100291.38;;;17.51;62.59
42411;BME280;28056;51.112;0.984;2023-06-10T03:35:08;100290.38;;;17.43;62.34
42411;BME280;28056;51.112;0.984;2023-06-10T03:37:35;100291.90;;;17.73;61.96
42411;BME280;28056;51.112;0.984;2023-06-10T03:40:02;100291.07;;;17.18;62.34
42411;BME280;28056;51.112;0.984;2023-06-10T03:42:30;100284.99;;;17.64;61.40
42411;BME280;28056;51.112;0.984;2023-06-10T03:44:57;100281.20;;;17.94;60.55
42411;BME280;28056;51.112;0.984;2023-06-10T03:47:34;100280.45;;;18.50;58.85
42411;BME280;28056;51.112;0.984;2023-06-10T03:50:01;100278.53;;;18.38;58.93
42411;BME280;28056;51.112;0.984;2023-06-10T03:52:28;100278.11;;;18.06;59.96
42411;BME280;28056;51.112;0.984;2023-06-10T03:54:56;100281.76;;;18.32;58.75
42411;BME280;28056;51.112;0.984;2023-06-10T03:57:23;100282.50;;;18.45;58.86
42411;BME280;28056;51.112;0.984;2023-06-10T03:59:50;100282.29;;;18.47;57.56
42411;BME280;28056;51.112;0.984;2023-06-10T04:02:17;100283.47;;;18.95;57.10
42411;BME280;28056;51.112;0.984;2023-06-10T04:04:45;100284.75;;;18.46;58.10
42411;BME280;28056;51.112;0.984;2023-06-10T04:07:12;100285.98;;;18.59;57.73
42411;BME280;28056;51.112;0.984;2023-06-10T04:09:39;100289.14;;;18.60;57.57
42411;BME280;28056;51.112;0.984;2023-06-10T04:12:12;100291.41;;;18.69;56.93
42411;BME280;28056;51.112;0.984;2023-06-10T04:14:39;100288.75;;;18.99;56.77
42411;BME280;28056;51.112;0.984;2023-06-10T04:17:08;100288.76;;;18.87;56.45
42411;BME280;28056;51.112;0.984;2023-06-10T04:19:35;100288.14;;;19.23;56.02
42411;BME280;28056;51.112;0.984;2023-06-10T04:22:08;100290.82;;;18.93;56.28
42411;BME280;28056;51.112;0.984;2023-06-10T04:24:35;100289.83;;;19.06;55.99
42411;BME280;28056;51.112;0.984;2023-06-10T04:27:02;100290.93;;;18.81;56.97
42411;BME280;28056;51.112;0.984;2023-06-10T04:29:35;100288.88;;;18.85;56.27
42411;BME280;28056;51.112;0.984;2023-06-10T04:32:03;100289.04;;;18.99;57.15
42411;BME280;28056;51.112;0.984;2023-06-10T04:34:30;100292.96;;;18.62;57.17
42411;BME280;28056;51.112;0.984;2023-06-10T04:36:57;100292.61;;;18.90;56.86
42411;BME280;28056;51.112;0.984;2023-06-10T04:39:25;100295.70;;;19.18;55.81
42411;BME280;28056;51.112;0.984;2023-06-10T04:41:52;100298.11;;;18.98;56.57
42411;BME280;28056;51.112;0.984;2023-06-10T04:44:20;100296.99;;;19.04;56.04
42411;BME280;28056;51.112;0.984;2023-06-10T04:46:47;100296.96;;;19.24;55.24
42411;BME280;28056;51.112;0.984;2023-06-10T04:49:14;100293.63;;;19.14;55.90
42411;BME280;28056;51.112;0.984;2023-06-10T04:51:42;100291.99;;;19.02;56.21
42411;BME280;28056;51.112;0.984;2023-06-10T04:54:09;100291.68;;;19.42;55.39
42411;BME280;28056;51.112;0.984;2023-06-10T04:56:36;100289.00;;;19.32;55.93
42411;BME280;28056;51.112;0.984;2023-06-10T04:59:04;100287.44;;;19.20;55.81
42411;BME280;28056;51.112;0.984;2023-06-10T05:01:31;100289.90;;;19.32;55.49
42411;BME280;28056;51.112;0.984;2023-06-10T05:03:58;100290.59;;;19.62;55.21
42411;BME280;28056;51.112;0.984;2023-06-10T05:06:25;100287.86;;;19.36;55.10
42411;BME280;28056;51.112;0.984;2023-06-10T05:08:53;100285.49;;;19.24;55.27
42411;BME280;28056;51.112;0.984;2023-06-10T05:11:20;100283.33;;;19.39;55.89
42411;BME280;28056;51.112;0.984;2023-06-10T05:13:47;100282.56;;;19.53;55.38
42411;BME280;28056;51.112;0.984;2023-06-10T05:16:15;100281.51;;;19.95;55.32
42411;BME280;28056;51.112;0.984;2023-06-10T05:18:42;100285.43;;;20.00;54.94
42411;BME280;28056;51.112;0.984;2023-06-10T05:21:10;100287.81;;;20.01;54.79
42411;BME280;28056;51.112;0.984;2023-06-10T05:23:37;100285.90;;;20.10;54.26
42411;BME280;28056;51.112;0.984;2023-06-10T05:26:05;100288.13;;;20.13;53.66
42411;BME280;28056;51.112;0.984;2023-06-10T05:28:32;100287.08;;;20.12;53.82
42411;BME280;28056;51.112;0.984;2023-06-10T05:31:00;100286.53;;;20.56;53.67
42411;BME280;28056;51.112;0.984;2023-06-10T05:33:27;100286.17;;;20.52;53.55
42411;BME280;28056;51.112;0.984;2023-06-10T05:35:54;100289.69;;;20.49;53.06
42411;BME280;28056;51.112;0.984;2023-06-10T05:38:21;100294.65;;;20.83;53.64
42411;BME280;28056;51.112;0.984;2023-06-10T05:40:49;100293.73;;;20.73;53.26
42411;BME280;28056;51.112;0.984;2023-06-10T05:43:18;100296.61;;;20.62;53.55
42411;BME280;28056;51.112;0.984;2023-06-10T05:45:47;100300.86;;;21.07;52.84
42411;BME280;28056;51.112;0.984;2023-06-10T05:48:17;100304.18;;;21.20;53.26
42411;BME280;28056;51.112;0.984;2023-06-10T05:50:51;100304.86;;;21.61;53.26
42411;BME280;28056;51.112;0.984;2023-06-10T05:53:23;100308.74;;;21.87;52.19
42411;BME280;28056;51.112;0.984;2023-06-10T05:55:53;100305.18;;;21.61;53.12
42411;BME280;28056;51.112;0.984;2023-06-10T05:58:27;100305.73;;;20.93;54.11
42411;BME280;28056;51.112;0.984;2023-06-10T06:00:55;100313.56;;;20.96;53.77
42411;BME280;28056;51.112;0.984;2023-06-10T06:03:25;100312.15;;;21.36;52.90
42411;BME280;28056;51.112;0.984;2023-06-10T06:05:54;100318.48;;;22.01;52.59
42411;BME280;28056;51.112;0.984;2023-06-10T06:08:28;100317.02;;;21.50;52.15
42411;BME280;28056;51.112;0.984;2023-06-10T06:10:59;100322.61;;;21.68;52.81
42411;BME280;28056;51.112;0.984;2023-06-10T06:13:28;100325.83;;;21.75;51.71
42411;BME280;28056;51.112;0.984;2023-06-10T06:15:56;100326.49;;;22.02;52.39
42411;BME280;28056;51.112;0.984;2023-06-10T06:18:25;100332.42;;;22.09;51.54
42411;BME280;28056;51.112;0.984;2023-06-10T06:20:55;100333.69;;;22.22;51.97
42411;BME280;28056;51.112;0.984;2023-06-10T06:23:25;100338.27;;;21.89;52.77
42411;BME280;28056;51.112;0.984;2023-06-10T06:25:55;100342.53;;;21.53;51.84
42411;BME280;28056;51.112;0.984;2023-06-10T06:28:24;100340.23;;;21.87;51.91
42411;BME280;28056;51.112;0.984;2023-06-10T06:30:57;100334.16;;;22.00;51.24
42411;BME280;28056;51.112;0.984;2023-06-10T06:33:27;100329.94;;;21.74;51.31
42411;BME280;28056;51.112;0.984;2023-06-10T06:35:58;100331.46;;;22.13;50.53
42411;BME280;28056;51.112;0.984;2023-06-10T06:38:28;100329.46;;;22.41;50.30
42411;BME280;28056;51.112;0.984;2023-06-10T06:40:57;100332.78;;;22.69;51.06
42411;BME280;28056;51.112;0.984;2023-06-10T06:43:26;100335.31;;;22.63;51.19
42411;BME280;28056;51.112;0.984;2023-06-10T06:45:59;100336.44;;;22.30;49.71
42411;BME280;28056;51.112;0.984;2023-06-10T06:48:29;100339.26;;;22.58;49.75
42411;BME280;28056;51.112;0.984;2023-06-10T06:50:59;100337.53;;;23.18;50.15
42411;BME280;28056;51.112;0.984;2023-06-10T06:53:27;100337.64;;;23.04;49.91
42411;BME280;28056;51.112;0.984;2023-06-10T06:55:55;100337.70;;;23.33;49.43
42411;BME280;28056;51.112;0.984;2023-06-10T06:58:25;100340.10;;;23.50;50.79
42411;BME280;28056;51.112;0.984;2023-06-10T07:00:54;100344.69;;;23.92;50.36
42411;BME280;28056;51.112;0.984;2023-06-10T07:03:23;100346.50;;;24.30;49.57
42411;BME280;28056;51.112;0.984;2023-06-10T07:05:51;100344.17;;;23.96;49.94
42411;BME280;28056;51.112;0.984;2023-06-10T07:08:21;100346.47;;;23.95;47.98
42411;BME280;28056;51.112;0.984;2023-06-10T07:10:50;100345.28;;;24.58;48.73
42411;BME280;28056;51.112;0.984;2023-06-10T07:13:19;100345.91;;;24.56;49.17
42411;BME280;28056;51.112;0.984;2023-06-10T07:15:48;100344.94;;;24.65;47.03
42411;BME280;28056;51.112;0.984;2023-06-10T07:18:18;100348.14;;;24.31;46.28
42411;BME280;28056;51.112;0.984;2023-06-10T07:20:49;100346.70;;;24.75;46.81
42411;BME280;28056;51.112;0.984;2023-06-10T07:23:25;100348.56;;;24.51;44.95
42411;BME280;28056;51.112;0.984;2023-06-10T07:25:53;100346.66;;;24.17;46.29
42411;BME280;28056;51.112;0.984;2023-06-10T07:28:21;100354.05;;;24.27;46.19
42411;BME280;28056;51.112;0.984;2023-06-10T07:30:53;100355.10;;;24.97;46.98
42411;BME280;28056;51.112;0.984;2023-06-10T07:33:22;100357.22;;;24.70;46.46
42411;BME280;28056;51.112;0.984;2023-06-10T07:35:51;100360.09;;;24.95;45.44
42411;BME280;28056;51.112;0.984;2023-06-10T07:38:19;100365.22;;;25.40;44.99
42411;BME280;28056;51.112;0.984;2023-06-10T07:40:49;100365.79;;;25.44;43.82
42411;BME280;28056;51.112;0.984;2023-06-10T07:43:17;100364.33;;;25.12;43.53
42411;BME280;28056;51.112;0.984;2023-06-10T07:45:46;100364.08;;;25.24;42.40
42411;BME280;28056;51.112;0.984;2023-06-10T07:48:18;100370.13;;;25.29;41.09
42411;BME280;28056;51.112;0.984;2023-06-10T07:50:48;100368.40;;;25.62;43.08
42411;BME280;28056;51.112;0.984;2023-06-10T07:53:17;100372.55;;;25.27;43.39
42411;BME280;28056;51.112;0.984;2023-06-10T07:55:47;100371.33;;;25.80;41.41
42411;BME280;28056;51.112;0.984;2023-06-10T07:58:16;100370.50;;;25.97;41.82
42411;BME280;28056;51.112;0.984;2023-06-10T08:00:48;100372.51;;;25.98;42.12
42411;BME280;28056;51.112;0.984;2023-06-10T08:03:18;100372.31;;;25.42;40.07
42411;BME280;28056;51.112;0.984;2023-06-10T08:05:47;100374.83;;;25.88;40.12
42411;BME280;28056;51.112;0.984;2023-06-10T08:08:16;100372.42;;;25.76;43.38
42411;BME280;28056;51.112;0.984;2023-06-10T08:10:46;100375.21;;;26.62;41.37
42411;BME280;28056;51.112;0.984;2023-06-10T08:13:16;100375.24;;;26.76;40.77
42411;BME280;28056;51.112;0.984;2023-06-10T08:15:44;100376.34;;;27.20;39.63
42411;BME280;28056;51.112;0.984;2023-06-10T08:18:12;100375.66;;;26.74;38.24
42411;BME280;28056;51.112;0.984;2023-06-10T08:20:42;100373.47;;;26.41;39.47
42411;BME280;28056;51.112;0.984;2023-06-10T08:23:13;100374.28;;;27.05;39.00
42411;BME280;28056;51.112;0.984;2023-06-10T08:25:44;100376.35;;;27.36;39.34
42411;BME280;28056;51.112;0.984;2023-06-10T08:28:13;100380.99;;;27.86;37.10
42411;BME280;28056;51.112;0.984;2023-06-10T08:30:40;100382.43;;;27.76;38.77
42411;BME280;28056;51.112;0.984;2023-06-10T08:33:07;100378.73;;;28.53;38.24
42411;BME280;28056;51.112;0.984;2023-06-10T08:35:37;100381.47;;;28.09;36.43
42411;BME280;28056;51.112;0.984;2023-06-10T08:38:05;100381.76;;;27.42;41.22
42411;BME280;28056;51.112;0.984;2023-06-10T08:40:34;100377.17;;;28.77;36.48
42411;BME280;28056;51.112;0.984;2023-06-10T08:43:06;100380.97;;;29.10;36.75
42411;BME280;28056;51.112;0.984;2023-06-10T08:45:37;100382.64;;;28.39;34.58
42411;BME280;28056;51.112;0.984;2023-06-10T08:48:05;100380.83;;;28.53;33.54
42411;BME280;28056;51.112;0.984;2023-06-10T08:50:36;100380.73;;;28.47;32.73
42411;BME280;28056;51.112;0.984;2023-06-10T08:53:06;100373.48;;;29.04;32.84
42411;BME280;28056;51.112;0.984;2023-06-10T08:55:42;100380.42;;;30.01;34.46
42411;BME280;28056;51.112;0.984;2023-06-10T08:58:09;100382.18;;;30.30;36.02
42411;BME280;28056;51.112;0.984;2023-06-10T09:00:38;100380.61;;;30.66;32.92
42411;BME280;28056;51.112;0.984;2023-06-10T09:03:09;100379.27;;;29.97;33.46
42411;BME280;28056;51.112;0.984;2023-06-10T09:05:38;100379.64;;;30.63;33.98
42411;BME280;28056;51.112;0.984;2023-06-10T09:08:08;100386.49;;;30.41;37.08
42411;BME280;28056;51.112;0.984;2023-06-10T09:10:38;100385.59;;;30.90;33.37
42411;BME280;28056;51.112;0.984;2023-06-10T09:13:06;100385.82;;;30.80;32.65
42411;BME280;28056;51.112;0.984;2023-06-10T09:15:36;100388.15;;;30.91;31.29
42411;BME280;28056;51.112;0.984;2023-06-10T09:18:05;100386.65;;;30.85;29.80
42411;BME280;28056;51.112;0.984;2023-06-10T09:20:34;100388.72;;;30.99;33.06
42411;BME280;28056;51.112;0.984;2023-06-10T09:23:03;100389.15;;;31.38;31.60
42411;BME280;28056;51.112;0.984;2023-06-10T09:25:39;100393.49;;;32.25;31.79
42411;BME280;28056;51.112;0.984;2023-06-10T09:28:13;100394.98;;;31.91;32.45
42411;BME280;28056;51.112;0.984;2023-06-10T09:30:47;100389.31;;;30.39;30.05
42411;BME280;28056;51.112;0.984;2023-06-10T09:33:16;100395.20;;;32.34;30.17
42411;BME280;28056;51.112;0.984;2023-06-10T09:35:47;100389.54;;;31.58;28.29
42411;BME280;28056;51.112;0.984;2023-06-10T09:38:19;100392.26;;;31.61;30.18
42411;BME280;28056;51.112;0.984;2023-06-10T09:40:54;100395.98;;;32.23;30.39
42411;BME280;28056;51.112;0.984;2023-06-10T09:43:37;100394.82;;;31.46;33.09
42411;BME280;28056;51.112;0.984;2023-06-10T09:46:08;100393.38;;;32.07;30.93
42411;BME280;28056;51.112;0.984;2023-06-10T09:48:47;100394.24;;;32.65;30.27
42411;BME280;28056;51.112;0.984;2023-06-10T09:51:18;100395.19;;;33.17;32.04
42411;BME280;28056;51.112;0.984;2023-06-10T09:53:54;100395.04;;;31.98;29.81
42411;BME280;28056;51.112;0.984;2023-06-10T09:56:36;100393.91;;;32.39;29.17
42411;BME280;28056;51.112;0.984;2023-06-10T09:59:06;100392.67;;;32.23;27.50
42411;BME280;28056;51.112;0.984;2023-06-10T10:01:35;100394.47;;;32.49;30.37
42411;BME280;28056;51.112;0.984;2023-06-10T10:04:04;100396.73;;;32.76;28.93
42411;BME280;28056;51.112;0.984;2023-06-10T10:06:35;100396.80;;;31.39;29.59
42411;BME280;28056;51.112;0.984;2023-06-10T10:09:05;100401.00;;;33.07;30.91
42411;BME280;28056;51.112;0.984;2023-06-10T10:11:35;100405.35;;;33.50;31.19
42411;BME280;28056;51.112;0.984;2023-06-10T10:14:04;100409.09;;;32.77;27.49
42411;BME280;28056;51.112;0.984;2023-06-10T10:16:40;100404.30;;;33.32;29.14
42411;BME280;28056;51.112;0.984;2023-06-10T10:19:16;100411.35;;;32.60;30.30
42411;BME280;28056;51.112;0.984;2023-06-10T10:21:54;100414.71;;;32.33;32.06
42411;BME280;28056;51.112;0.984;2023-06-10T10:24:36;100410.55;;;32.84;28.24
42411;BME280;28056;51.112;0.984;2023-06-10T10:27:14;100415.44;;;32.65;29.48
42411;BME280;28056;51.112;0.984;2023-06-10T10:29:47;100411.82;;;31.95;29.72
42411;BME280;28056;51.112;0.984;2023-06-10T10:32:17;100406.75;;;33.18;27.55
42411;BME280;28056;51.112;0.984;2023-06-10T10:34:53;100407.21;;;32.98;27.37
42411;BME280;28056;51.112;0.984;2023-06-10T10:37:30;100406.05;;;32.61;29.68
42411;BME280;28056;51.112;0.984;2023-06-10T10:40:03;100403.92;;;32.81;26.76
42411;BME280;28056;51.112;0.984;2023-06-10T10:42:35;100401.43;;;32.01;30.16
42411;BME280;28056;51.112;0.984;2023-06-10T10:45:07;100398.36;;;33.04;28.75
42411;BME280;28056;51.112;0.984;2023-06-10T10:47:39;100401.50;;;32.29;29.85
42411;BME280;28056;51.112;0.984;2023-06-10T10:50:15;100395.09;;;33.18;30.14
42411;BME280;28056;51.112;0.984;2023-06-10T10:53:02;100394.39;;;33.16;30.34
42411;BME280;28056;51.112;0.984;2023-06-10T10:55:32;100398.58;;;33.65;28.72
42411;BME280;28056;51.112;0.984;2023-06-10T10:58:03;100398.13;;;32.70;27.15
42411;BME280;28056;51.112;0.984;2023-06-10T11:00:38;100395.25;;;33.46;31.79
42411;BME280;28056;51.112;0.984;2023-06-10T11:03:16;100397.01;;;34.05;30.69
42411;BME280;28056;51.112;0.984;2023-06-10T11:05:46;100394.31;;;33.73;25.65
42411;BME280;28056;51.112;0.984;2023-06-10T11:08:48;100388.80;;;33.63;30.64
42411;BME280;28056;51.112;0.984;2023-06-10T11:11:23;100392.41;;;34.68;29.27
42411;BME280;28056;51.112;0.984;2023-06-10T11:14:08;100388.17;;;34.68;26.52
42411;BME280;28056;51.112;0.984;2023-06-10T11:16:40;100386.54;;;34.88;27.66
42411;BME280;28056;51.112;0.984;2023-06-10T11:19:31;100384.97;;;34.80;28.28
42411;BME280;28056;51.112;0.984;2023-06-10T11:22:05;100377.64;;;34.10;29.43
42411;BME280;28056;51.112;0.984;2023-06-10T11:24:36;100374.71;;;33.19;28.38
42411;BME280;28056;51.112;0.984;2023-06-10T11:27:29;100372.43;;;33.42;26.22
42411;BME280;28056;51.112;0.984;2023-06-10T11:30:28;100370.95;;;33.57;25.70
42411;BME280;28056;51.112;0.984;2023-06-10T11:33:03;100370.21;;;32.92;26.62
42411;BME280;28056;51.112;0.984;2023-06-10T11:35:35;100373.91;;;33.57;27.82
42411;BME280;28056;51.112;0.984;2023-06-10T11:38:06;100367.21;;;34.29;24.34
42411;BME280;28056;51.112;0.984;2023-06-10T11:40:49;100372.28;;;34.27;26.14
42411;BME280;28056;51.112;0.984;2023-06-10T11:43:20;100374.52;;;34.47;25.43
42411;BME280;28056;51.112;0.984;2023-06-10T11:45:58;100370.37;;;33.90;24.18
42411;BME280;28056;51.112;0.984;2023-06-10T11:48:27;100374.60;;;34.78;26.09
42411;BME280;28056;51.112;0.984;2023-06-10T11:50:58;100372.58;;;33.86;25.06
42411;BME280;28056;51.112;0.984;2023-06-10T11:53:30;100371.47;;;35.14;25.59
42411;BME280;28056;51.112;0.984;2023-06-10T11:55:59;100362.32;;;34.48;24.33
42411;BME280;28056;51.112;0.984;2023-06-10T11:58:30;100368.69;;;34.94;26.57
42411;BME280;28056;51.112;0.984;2023-06-10T12:00:58;100365.04;;;34.61;23.64
42411;BME280;28056;51.112;0.984;2023-06-10T12:03:28;100367.63;;;33.67;26.07
42411;BME280;28056;51.112;0.984;2023-06-10T12:06:04;100370.24;;;34.47;27.87
42411;BME280;28056;51.112;0.984;2023-06-10T12:08:33;100371.08;;;35.36;25.07
42411;BME280;28056;51.112;0.984;2023-06-10T12:11:12;100369.39;;;35.41;25.66
42411;BME280;28056;51.112;0.984;2023-06-10T12:13:49;100363.09;;;35.45;23.69
42411;BME280;28056;51.112;0.984;2023-06-10T12:16:18;100374.41;;;35.76;26.62
42411;BME280;28056;51.112;0.984;2023-06-10T12:18:46;100366.56;;;35.09;24.12
42411;BME280;28056;51.112;0.984;2023-06-10T12:21:20;100367.08;;;35.24;29.10
42411;BME280;28056;51.112;0.984;2023-06-10T12:24:08;100369.93;;;36.03;28.07
42411;BME280;28056;51.112;0.984;2023-06-10T12:26:40;100364.72;;;34.80;26.58
42411;BME280;28056;51.112;0.984;2023-06-10T12:29:21;100370.19;;;35.60;25.52
42411;BME280;28056;51.112;0.984;2023-06-10T12:32:00;100362.71;;;35.40;25.41
42411;BME280;28056;51.112;0.984;2023-06-10T12:34:37;100370.72;;;35.69;27.10
42411;BME280;28056;51.112;0.984;2023-06-10T12:37:11;100367.85;;;36.18;26.39
42411;BME280;28056;51.112;0.984;2023-06-10T12:39:41;100371.96;;;36.20;25.03
42411;BME280;28056;51.112;0.984;2023-06-10T12:42:12;100371.45;;;35.79;28.40
42411;BME280;28056;51.112;0.984;2023-06-10T12:44:46;100375.58;;;36.29;27.88
42411;BME280;28056;51.112;0.984;2023-06-10T12:47:30;100370.03;;;36.15;28.20
42411;BME280;28056;51.112;0.984;2023-06-10T12:50:03;100369.65;;;36.54;26.22
42411;BME280;28056;51.112;0.984;2023-06-10T12:52:35;100372.59;;;36.00;22.62
42411;BME280;28056;51.112;0.984;2023-06-10T12:55:08;100373.25;;;37.26;24.13
42411;BME280;28056;51.112;0.984;2023-06-10T12:57:38;100376.03;;;37.44;24.71
42411;BME280;28056;51.112;0.984;2023-06-10T13:00:17;100375.32;;;36.80;23.25
42411;BME280;28056;51.112;0.984;2023-06-10T13:02:50;100375.40;;;35.80;24.45
42411;BME280;28056;51.112;0.984;2023-06-10T13:05:23;100376.52;;;36.30;26.21
42411;BME280;28056;51.112;0.984;2023-06-10T13:07:50;100369.44;;;36.58;27.17
42411;BME280;28056;51.112;0.984;2023-06-10T13:10:25;100371.69;;;36.42;26.65